sensor_id;sensor_type;location;lat;lon;timestamp;pressure;altitude;pressure_sealevel;temperature;humidity
15998;BME280;8103;51.340;12.326;2023-02-04T00:01:08;100965.72;;;7.06;83.59
15998;BME280;8103;51.340;12.326;2023-02-04T00:03:40;100974.75;;;6.98;83.83
15998;BME280;8103;51.340;12.326;2023-02-04T00:06:07;100977.25;;;6.87;83.38
15998;BME280;8103;51.340;12.326;2023-02-04T00:08:35;100978.50;;;6.78;83.12
15998;BME280;8103;51.340;12.326;2023-02-04T00:11:06;100989.59;;;6.68;82.47
15998;BME280;8103;51.340;12.326;2023-02-04T00:13:36;101004.56;;;6.63;82.27
15998;BME280;8103;51.340;12.326;2023-02-04T00:16:04;101018.72;;;6.57;82.47
15998;BME280;8103;51.340;12.326;2023-02-04T00:18:31;101027.50;;;6.50;82.82
15998;BME280;8103;51.340;12.326;2023-02-04T00:25:07;101031.63;;;6.46;82.12
15998;BME280;8103;51.340;12.326;2023-02-04T00:27:34;101043.28;;;6.39;82.49
15998;BME280;8103;51.340;12.326;2023-02-04T00:30:03;101055.16;;;6.36;82.59
15998;BME280;8103;51.340;12.326;2023-02-04T00:32:31;101067.25;;;6.39;82.75
15998;BME280;8103;51.340;12.326;2023-02-04T00:34:57;101074.41;;;6.38;82.80
15998;BME280;8103;51.340;12.326;2023-02-04T00:37:26;101092.84;;;6.33;82.33
15998;BME280;8103;51.340;12.326;2023-02-04T00:39:53;101095.50;;;6.33;82.46
15998;BME280;8103;51.340;12.326;2023-02-04T00:42:20;101101.03;;;6.32;83.13
15998;BME280;8103;51.340;12.326;2023-02-04T00:44:50;101117.81;;;6.32;82.46
15998;BME280;8103;51.340;12.326;2023-02-04T00:51:19;101127.66;;;6.32;82.62
15998;BME280;8103;51.340;12.326;2023-02-04T00:53:49;101129.28;;;6.26;82.65
15998;BME280;8103;51.340;12.326;2023-02-04T00:56:21;101146.88;;;6.21;82.79
15998;BME280;8103;51.340;12.326;2023-02-04T01:02:57;101153.66;;;6.23;81.80
15998;BME280;8103;51.340;12.326;2023-02-04T01:05:34;101158.75;;;6.18;81.78
15998;BME280;8103;51.340;12.326;2023-02-04T01:08:01;101164.88;;;6.19;81.69
15998;BME280;8103;51.340;12.326;2023-02-04T01:10:31;101167.56;;;6.19;81.93
15998;BME280;8103;51.340;12.326;2023-02-04T01:12:59;101191.50;;;6.12;81.57
15998;BME280;8103;51.340;12.326;2023-02-04T01:15:27;101195.59;;;6.08;80.85
15998;BME280;8103;51.340;12.326;2023-02-04T01:17:54;101206.22;;;6.08;80.92
15998;BME280;8103;51.340;12.326;2023-02-04T01:20:21;101207.63;;;6.04;80.64
15998;BME280;8103;51.340;12.326;2023-02-04T01:22:48;101229.91;;;5.97;80.52
15998;BME280;8103;51.340;12.326;2023-02-04T01:25:15;101243.41;;;5.95;80.34
15998;BME280;8103;51.340;12.326;2023-02-04T01:27:44;101239.31;;;5.93;80.26
15998;BME280;8103;51.340;12.326;2023-02-04T01:30:15;101256.50;;;5.90;79.64
15998;BME280;8103;51.340;12.326;2023-02-04T01:32:42;101256.50;;;5.90;80.36
15998;BME280;8103;51.340;12.326;2023-02-04T01:35:09;101276.94;;;5.90;79.60
15998;BME280;8103;51.340;12.326;2023-02-04T01:37:36;101271.22;;;5.86;79.79
15998;BME280;8103;51.340;12.326;2023-02-04T01:40:04;101275.59;;;5.79;79.78
15998;BME280;8103;51.340;12.326;2023-02-04T01:42:31;101289.28;;;5.76;79.93
15998;BME280;8103;51.340;12.326;2023-02-04T01:44:59;101300.13;;;5.75;80.34
15998;BME280;8103;51.340;12.326;2023-02-04T01:47:26;101307.91;;;5.76;80.48
15998;BME280;8103;51.340;12.326;2023-02-04T01:49:54;101315.03;;;5.69;80.02
15998;BME280;8103;51.340;12.326;2023-02-04T01:52:22;101318.72;;;5.68;80.18
15998;BME280;8103;51.340;12.326;2023-02-04T01:54:51;101311.25;;;5.57;80.05
15998;BME280;8103;51.340;12.326;2023-02-04T01:57:19;101318.34;;;5.50;79.87
15998;BME280;8103;51.340;12.326;2023-02-04T01:59:53;101330.13;;;5.41;79.85
15998;BME280;8103;51.340;12.326;2023-02-04T02:02:44;101337.97;;;5.28;80.02
15998;BME280;8103;51.340;12.326;2023-02-04T02:05:20;101340.50;;;5.15;80.10
15998;BME280;8103;51.340;12.326;2023-02-04T02:07:50;101355.94;;;5.05;80.25
15998;BME280;8103;51.340;12.326;2023-02-04T02:10:19;101371.34;;;4.95;80.76
15998;BME280;8103;51.340;12.326;2023-02-04T02:12:48;101382.72;;;4.89;81.55
15998;BME280;8103;51.340;12.326;2023-02-04T02:15:16;101390.31;;;4.92;82.01
15998;BME280;8103;51.340;12.326;2023-02-04T02:17:43;101397.56;;;4.98;81.67
15998;BME280;8103;51.340;12.326;2023-02-04T02:20:16;101401.09;;;5.05;81.61
15998;BME280;8103;51.340;12.326;2023-02-04T02:25:44;101424.66;;;5.08;80.76
15998;BME280;8103;51.340;12.326;2023-02-04T02:28:17;101425.75;;;4.99;81.33
15998;BME280;8103;51.340;12.326;2023-02-04T02:30:46;101430.19;;;4.92;81.36
15998;BME280;8103;51.340;12.326;2023-02-04T02:33:18;101432.19;;;4.90;80.97
15998;BME280;8103;51.340;12.326;2023-02-04T02:35:46;101438.03;;;5.00;81.14
15998;BME280;8103;51.340;12.326;2023-02-04T02:38:18;101451.97;;;5.02;81.40
15998;BME280;8103;51.340;12.326;2023-02-04T02:40:48;101461.56;;;5.03;81.50
15998;BME280;8103;51.340;12.326;2023-02-04T02:43:20;101468.44;;;5.12;80.68
15998;BME280;8103;51.340;12.326;2023-02-04T02:45:49;101474.03;;;5.17;80.54
15998;BME280;8103;51.340;12.326;2023-02-04T02:48:17;101479.59;;;5.22;80.78
15998;BME280;8103;51.340;12.326;2023-02-04T02:50:44;101483.56;;;5.26;80.48
15998;BME280;8103;51.340;12.326;2023-02-04T02:53:14;101497.28;;;5.30;81.08
15998;BME280;8103;51.340;12.326;2023-02-04T02:55:43;101506.75;;;5.32;80.94
15998;BME280;8103;51.340;12.326;2023-02-04T02:58:35;101510.34;;;5.25;80.95
15998;BME280;8103;51.340;12.326;2023-02-04T03:01:06;101506.56;;;5.19;81.16
15998;BME280;8103;51.340;12.326;2023-02-04T03:03:45;101519.66;;;5.21;81.54
15998;BME280;8103;51.340;12.326;2023-02-04T03:06:21;101516.81;;;5.22;81.10
15998;BME280;8103;51.340;12.326;2023-02-04T03:08:52;101535.72;;;5.27;81.30
15998;BME280;8103;51.340;12.326;2023-02-04T03:11:22;101537.00;;;5.31;80.53
15998;BME280;8103;51.340;12.326;2023-02-04T03:13:50;101541.56;;;5.37;80.31
15998;BME280;8103;51.340;12.326;2023-02-04T03:16:19;101546.16;;;5.43;80.37
15998;BME280;8103;51.340;12.326;2023-02-04T03:18:47;101552.75;;;5.47;80.74
15998;BME280;8103;51.340;12.326;2023-02-04T03:21:14;101561.75;;;5.46;80.04
15998;BME280;8103;51.340;12.326;2023-02-04T03:23:41;101572.75;;;5.43;79.69
15998;BME280;8103;51.340;12.326;2023-02-04T03:26:08;101579.25;;;5.41;79.65
15998;BME280;8103;51.340;12.326;2023-02-04T03:28:39;101571.00;;;5.36;79.73
15998;BME280;8103;51.340;12.326;2023-02-04T03:31:07;101583.56;;;5.27;79.91
15998;BME280;8103;51.340;12.326;2023-02-04T03:33:34;101585.56;;;5.25;80.48
15998;BME280;8103;51.340;12.326;2023-02-04T03:36:01;101589.31;;;5.16;80.68
15998;BME280;8103;51.340;12.326;2023-02-04T03:38:28;101593.09;;;5.07;80.92
15998;BME280;8103;51.340;12.326;2023-02-04T03:40:55;101601.63;;;5.03;81.65
15998;BME280;8103;51.340;12.326;2023-02-04T03:43:22;101617.44;;;4.96;81.45
15998;BME280;8103;51.340;12.326;2023-02-04T03:45:48;101618.63;;;4.94;82.03
15998;BME280;8103;51.340;12.326;2023-02-04T03:48:15;101629.72;;;4.97;82.49
15998;BME280;8103;51.340;12.326;2023-02-04T03:50:42;101637.97;;;5.02;82.62
15998;BME280;8103;51.340;12.326;2023-02-04T03:53:10;101630.13;;;5.09;82.09
15998;BME280;8103;51.340;12.326;2023-02-04T03:55:37;101650.84;;;5.13;82.32
15998;BME280;8103;51.340;12.326;2023-02-04T03:58:04;101651.22;;;5.10;81.39
15998;BME280;8103;51.340;12.326;2023-02-04T04:00:31;101654.13;;;5.15;82.32
15998;BME280;8103;51.340;12.326;2023-02-04T04:02:59;101662.41;;;5.20;81.66
15998;BME280;8103;51.340;12.326;2023-02-04T04:05:27;101659.84;;;5.27;80.96
15998;BME280;8103;51.340;12.326;2023-02-04T04:07:55;101677.28;;;5.29;81.33
15998;BME280;8103;51.340;12.326;2023-02-04T04:10:21;101683.88;;;5.33;81.55
15998;BME280;8103;51.340;12.326;2023-02-04T04:12:49;101689.63;;;5.37;81.40
15998;BME280;8103;51.340;12.326;2023-02-04T04:15:16;101695.78;;;5.37;80.64
15998;BME280;8103;51.340;12.326;2023-02-04T04:17:44;101701.09;;;5.37;81.33
15998;BME280;8103;51.340;12.326;2023-02-04T04:20:12;101704.78;;;5.36;81.01
15998;BME280;8103;51.340;12.326;2023-02-04T04:22:39;101708.06;;;5.38;80.52
15998;BME280;8103;51.340;12.326;2023-02-04T04:25:07;101702.94;;;5.37;81.07
15998;BME280;8103;51.340;12.326;2023-02-04T04:27:34;101718.53;;;5.40;80.91
15998;BME280;8103;51.340;12.326;2023-02-04T04:30:02;101722.84;;;5.41;80.76
15998;BME280;8103;51.340;12.326;2023-02-04T04:32:30;101724.69;;;5.40;80.77
15998;BME280;8103;51.340;12.326;2023-02-04T04:34:57;101731.06;;;5.31;79.92
15998;BME280;8103;51.340;12.326;2023-02-04T04:37:24;101741.97;;;5.22;80.21
15998;BME280;8103;51.340;12.326;2023-02-04T04:39:51;101749.59;;;5.02;80.28
15998;BME280;8103;51.340;12.326;2023-02-04T04:42:18;101751.34;;;4.87;80.70
15998;BME280;8103;51.340;12.326;2023-02-04T04:44:45;101754.25;;;4.78;80.89
15998;BME280;8103;51.340;12.326;2023-02-04T04:47:12;101759.59;;;4.70;80.88
15998;BME280;8103;51.340;12.326;2023-02-04T04:49:39;101768.44;;;4.62;81.39
15998;BME280;8103;51.340;12.326;2023-02-04T04:52:05;101772.81;;;4.55;80.70
15998;BME280;8103;51.340;12.326;2023-02-04T04:54:32;101779.16;;;4.46;82.04
15998;BME280;8103;51.340;12.326;2023-02-04T04:56:59;101781.84;;;4.38;81.83
15998;BME280;8103;51.340;12.326;2023-02-04T04:59:27;101794.16;;;4.31;82.68
15998;BME280;8103;51.340;12.326;2023-02-04T05:01:54;101800.00;;;4.26;83.32
15998;BME280;8103;51.340;12.326;2023-02-04T05:04:21;101805.16;;;4.20;83.17
15998;BME280;8103;51.340;12.326;2023-02-04T05:06:51;101802.16;;;4.15;83.97
15998;BME280;8103;51.340;12.326;2023-02-04T05:09:18;101820.09;;;4.13;83.46
15998;BME280;8103;51.340;12.326;2023-02-04T05:11:45;101827.72;;;4.16;83.87
15998;BME280;8103;51.340;12.326;2023-02-04T05:14:13;101837.50;;;4.23;83.99
15998;BME280;8103;51.340;12.326;2023-02-04T05:16:40;101835.28;;;4.35;83.72
15998;BME280;8103;51.340;12.326;2023-02-04T05:19:07;101840.38;;;4.44;83.66
15998;BME280;8103;51.340;12.326;2023-02-04T05:21:34;101836.53;;;4.55;84.13
15998;BME280;8103;51.340;12.326;2023-02-04T05:24:01;101837.31;;;4.64;83.67
15998;BME280;8103;51.340;12.326;2023-02-04T05:26:28;101845.44;;;4.70;82.79
15998;BME280;8103;51.340;12.326;2023-02-04T05:29:03;101852.06;;;4.74;83.15
15998;BME280;8103;51.340;12.326;2023-02-04T05:31:31;101857.50;;;4.81;82.52
15998;BME280;8103;51.340;12.326;2023-02-04T05:34:01;101870.28;;;4.85;82.38
15998;BME280;8103;51.340;12.326;2023-02-04T05:36:28;101871.44;;;4.83;81.44
15998;BME280;8103;51.340;12.326;2023-02-04T05:38:56;101875.09;;;4.82;81.01
15998;BME280;8103;51.340;12.326;2023-02-04T05:41:22;101884.88;;;4.81;81.10
15998;BME280;8103;51.340;12.326;2023-02-04T05:43:49;101891.88;;;4.82;80.51
15998;BME280;8103;51.340;12.326;2023-02-04T05:46:16;101895.00;;;4.86;80.06
15998;BME280;8103;51.340;12.326;2023-02-04T05:48:43;101910.59;;;4.89;79.94
15998;BME280;8103;51.340;12.326;2023-02-04T05:51:10;101910.44;;;4.90;80.03
15998;BME280;8103;51.340;12.326;2023-02-04T05:53:37;101909.44;;;4.91;79.37
15998;BME280;8103;51.340;12.326;2023-02-04T05:56:04;101920.06;;;4.91;79.47
15998;BME280;8103;51.340;12.326;2023-02-04T05:58:31;101920.06;;;4.91;79.62
15998;BME280;8103;51.340;12.326;2023-02-04T06:01:02;101930.03;;;4.89;78.85
15998;BME280;8103;51.340;12.326;2023-02-04T06:03:30;101937.34;;;4.87;78.89
15998;BME280;8103;51.340;12.326;2023-02-04T06:05:58;101945.00;;;4.82;78.99
15998;BME280;8103;51.340;12.326;2023-02-04T06:08:25;101953.66;;;4.76;78.46
15998;BME280;8103;51.340;12.326;2023-02-04T06:10:52;101954.63;;;4.75;77.94
15998;BME280;8103;51.340;12.326;2023-02-04T06:13:19;101961.97;;;4.73;78.08
15998;BME280;8103;51.340;12.326;2023-02-04T06:15:46;101959.50;;;4.64;78.78
15998;BME280;8103;51.340;12.326;2023-02-04T06:18:12;101967.16;;;4.59;78.14
15998;BME280;8103;51.340;12.326;2023-02-04T06:20:45;101967.31;;;4.49;78.41
15998;BME280;8103;51.340;12.326;2023-02-04T06:23:12;101976.28;;;4.40;78.44
15998;BME280;8103;51.340;12.326;2023-02-04T06:25:39;101975.66;;;4.30;79.01
15998;BME280;8103;51.340;12.326;2023-02-04T06:28:06;101976.66;;;4.21;79.39
15998;BME280;8103;51.340;12.326;2023-02-04T06:34:38;101976.50;;;3.98;79.21
15998;BME280;8103;51.340;12.326;2023-02-04T06:37:07;101981.63;;;3.92;79.80
15998;BME280;8103;51.340;12.326;2023-02-04T06:39:34;101981.31;;;3.87;80.76
15998;BME280;8103;51.340;12.326;2023-02-04T06:42:01;101982.75;;;3.81;80.62
15998;BME280;8103;51.340;12.326;2023-02-04T06:44:27;101985.25;;;3.75;80.39
15998;BME280;8103;51.340;12.326;2023-02-04T06:46:55;101990.91;;;3.72;81.28
15998;BME280;8103;51.340;12.326;2023-02-04T06:49:22;101999.16;;;3.69;81.65
15998;BME280;8103;51.340;12.326;2023-02-04T06:51:51;101997.00;;;3.64;82.00
15998;BME280;8103;51.340;12.326;2023-02-04T06:54:18;101999.97;;;3.61;82.48
15998;BME280;8103;51.340;12.326;2023-02-04T06:56:45;101994.16;;;3.58;82.54
15998;BME280;8103;51.340;12.326;2023-02-04T06:59:12;101994.50;;;3.55;82.58
15998;BME280;8103;51.340;12.326;2023-02-04T07:01:39;101993.16;;;3.51;83.36
15998;BME280;8103;51.340;12.326;2023-02-04T07:04:06;101990.81;;;3.48;83.15
15998;BME280;8103;51.340;12.326;2023-02-04T07:06:33;102006.09;;;3.46;83.71
15998;BME280;8103;51.340;12.326;2023-02-04T07:09:00;102009.69;;;3.45;84.21
15998;BME280;8103;51.340;12.326;2023-02-04T07:11:26;102015.00;;;3.45;84.39
15998;BME280;8103;51.340;12.326;2023-02-04T07:13:53;102018.66;;;3.44;84.51
15998;BME280;8103;51.340;12.326;2023-02-04T07:16:20;102024.78;;;3.44;84.75
15998;BME280;8103;51.340;12.326;2023-02-04T07:18:47;102036.22;;;3.45;84.54
15998;BME280;8103;51.340;12.326;2023-02-04T07:21:14;102042.66;;;3.42;84.58
15998;BME280;8103;51.340;12.326;2023-02-04T07:23:40;102046.81;;;3.45;85.43
15998;BME280;8103;51.340;12.326;2023-02-04T07:26:07;102046.00;;;3.44;85.18
15998;BME280;8103;51.340;12.326;2023-02-04T07:28:34;102050.16;;;3.47;85.37
15998;BME280;8103;51.340;12.326;2023-02-04T07:31:02;102044.84;;;3.47;85.17
15998;BME280;8103;51.340;12.326;2023-02-04T07:33:29;102057.09;;;3.48;85.09
15998;BME280;8103;51.340;12.326;2023-02-04T07:35:57;102063.09;;;3.50;85.88
15998;BME280;8103;51.340;12.326;2023-02-04T07:38:24;102061.75;;;3.54;85.03
15998;BME280;8103;51.340;12.326;2023-02-04T07:40:51;102072.03;;;3.57;85.30
15998;BME280;8103;51.340;12.326;2023-02-04T07:43:18;102065.44;;;3.61;85.81
15998;BME280;8103;51.340;12.326;2023-02-04T07:45:44;102071.94;;;3.66;84.99
15998;BME280;8103;51.340;12.326;2023-02-04T07:48:11;102082.72;;;3.73;85.10
15998;BME280;8103;51.340;12.326;2023-02-04T07:50:38;102077.59;;;3.79;85.01
15998;BME280;8103;51.340;12.326;2023-02-04T07:53:05;102084.06;;;3.85;84.41
15998;BME280;8103;51.340;12.326;2023-02-04T07:55:32;102087.09;;;3.90;84.98
15998;BME280;8103;51.340;12.326;2023-02-04T07:57:59;102088.56;;;3.92;85.18
15998;BME280;8103;51.340;12.326;2023-02-04T08:00:25;102110.47;;;4.02;84.29
15998;BME280;8103;51.340;12.326;2023-02-04T08:02:52;102097.56;;;4.07;84.72
15998;BME280;8103;51.340;12.326;2023-02-04T08:05:19;102112.00;;;4.13;83.95
15998;BME280;8103;51.340;12.326;2023-02-04T08:07:46;102118.31;;;4.20;83.51
15998;BME280;8103;51.340;12.326;2023-02-04T08:10:13;102122.97;;;4.26;83.58
15998;BME280;8103;51.340;12.326;2023-02-04T08:12:40;102120.69;;;4.31;84.10
15998;BME280;8103;51.340;12.326;2023-02-04T08:15:07;102123.97;;;4.33;83.03
15998;BME280;8103;51.340;12.326;2023-02-04T08:21:34;102119.66;;;4.40;82.84
15998;BME280;8103;51.340;12.326;2023-02-04T08:24:01;102133.28;;;4.45;82.16
15998;BME280;8103;51.340;12.326;2023-02-04T08:26:28;102132.97;;;4.48;81.41
15998;BME280;8103;51.340;12.326;2023-02-04T08:28:55;102139.94;;;4.49;81.40
15998;BME280;8103;51.340;12.326;2023-02-04T08:31:22;102145.59;;;4.54;81.07
15998;BME280;8103;51.340;12.326;2023-02-04T08:33:49;102149.88;;;4.55;81.12
15998;BME280;8103;51.340;12.326;2023-02-04T08:36:15;102156.84;;;4.56;80.87
15998;BME280;8103;51.340;12.326;2023-02-04T08:38:42;102151.72;;;4.55;81.29
15998;BME280;8103;51.340;12.326;2023-02-04T08:41:10;102166.81;;;4.62;80.44
15998;BME280;8103;51.340;12.326;2023-02-04T08:43:37;102165.84;;;4.63;80.20
15998;BME280;8103;51.340;12.326;2023-02-04T08:46:04;102176.78;;;4.68;80.20
15998;BME280;8103;51.340;12.326;2023-02-04T08:48:31;102178.78;;;4.74;80.65
15998;BME280;8103;51.340;12.326;2023-02-04T08:50:58;102167.84;;;4.85;80.01
15998;BME280;8103;51.340;12.326;2023-02-04T08:53:25;102183.94;;;4.92;79.57
15998;BME280;8103;51.340;12.326;2023-02-04T08:55:52;102178.81;;;4.98;79.14
15998;BME280;8103;51.340;12.326;2023-02-04T08:58:18;102181.63;;;5.13;79.29
15998;BME280;8103;51.340;12.326;2023-02-04T09:00:45;102186.41;;;5.33;79.38
15998;BME280;8103;51.340;12.326;2023-02-04T09:03:12;102183.69;;;5.65;78.80
15998;BME280;8103;51.340;12.326;2023-02-04T09:05:39;102183.69;;;7.25;77.15
15998;BME280;8103;51.340;12.326;2023-02-04T09:08:06;102191.03;;;9.44;70.47
15998;BME280;8103;51.340;12.326;2023-02-04T09:10:33;102185.25;;;11.34;62.24
15998;BME280;8103;51.340;12.326;2023-02-04T09:13:00;102180.09;;;12.60;53.39
15998;BME280;8103;51.340;12.326;2023-02-04T09:15:27;102173.84;;;13.46;52.49
15998;BME280;8103;51.340;12.326;2023-02-04T09:17:54;102179.44;;;14.05;50.09
15998;BME280;8103;51.340;12.326;2023-02-04T09:20:30;102177.38;;;14.66;48.58
15998;BME280;8103;51.340;12.326;2023-02-04T09:22:57;102184.69;;;15.65;46.27
15998;BME280;8103;51.340;12.326;2023-02-04T09:25:24;102187.03;;;15.96;43.86
15998;BME280;8103;51.340;12.326;2023-02-04T09:27:50;102186.31;;;16.40;42.63
15998;BME280;8103;51.340;12.326;2023-02-04T09:30:17;102198.81;;;16.69;41.19
15998;BME280;8103;51.340;12.326;2023-02-04T09:32:44;102197.91;;;16.63;40.89
15998;BME280;8103;51.340;12.326;2023-02-04T09:35:11;102205.91;;;16.86;40.04
15998;BME280;8103;51.340;12.326;2023-02-04T09:37:38;102207.56;;;17.04;39.78
15998;BME280;8103;51.340;12.326;2023-02-04T09:40:05;102218.63;;;17.47;38.14
15998;BME280;8103;51.340;12.326;2023-02-04T09:42:34;102222.63;;;17.61;38.10
15998;BME280;8103;51.340;12.326;2023-02-04T09:45:01;102224.94;;;18.07;37.78
15998;BME280;8103;51.340;12.326;2023-02-04T09:47:29;102225.22;;;18.75;36.23
15998;BME280;8103;51.340;12.326;2023-02-04T09:49:56;102216.38;;;19.17;35.08
15998;BME280;8103;51.340;12.326;2023-02-04T09:52:26;102233.91;;;19.62;34.48
15998;BME280;8103;51.340;12.326;2023-02-04T09:54:53;102228.75;;;20.69;33.24
15998;BME280;8103;51.340;12.326;2023-02-04T09:57:20;102234.09;;;20.39;33.69
15998;BME280;8103;51.340;12.326;2023-02-04T09:59:50;102236.75;;;21.66;31.14
15998;BME280;8103;51.340;12.326;2023-02-04T10:02:23;102245.13;;;22.09;29.78
15998;BME280;8103;51.340;12.326;2023-02-04T10:04:54;102231.16;;;22.74;29.23
15998;BME280;8103;51.340;12.326;2023-02-04T10:07:24;102233.41;;;24.02;28.29
15998;BME280;8103;51.340;12.326;2023-02-04T10:09:53;102236.59;;;25.12;26.15
15998;BME280;8103;51.340;12.326;2023-02-04T10:12:21;102243.28;;;26.15;25.24
15998;BME280;8103;51.340;12.326;2023-02-04T10:14:48;102240.59;;;27.22;23.69
15998;BME280;8103;51.340;12.326;2023-02-04T10:17:20;102236.88;;;27.71;23.74
15998;BME280;8103;51.340;12.326;2023-02-04T10:19:48;102247.66;;;25.71;24.79
15998;BME280;8103;51.340;12.326;2023-02-04T10:22:20;102249.19;;;22.85;27.68
15998;BME280;8103;51.340;12.326;2023-02-04T10:24:47;102262.22;;;20.54;29.84
15998;BME280;8103;51.340;12.326;2023-02-04T10:27:14;102263.94;;;18.61;32.60
15998;BME280;8103;51.340;12.326;2023-02-04T10:29:54;102271.72;;;16.70;35.22
15998;BME280;8103;51.340;12.326;2023-02-04T10:32:28;102264.00;;;15.36;37.43
15998;BME280;8103;51.340;12.326;2023-02-04T10:35:01;102275.47;;;14.06;39.78
15998;BME280;8103;51.340;12.326;2023-02-04T10:37:28;102282.25;;;13.97;40.99
15998;BME280;8103;51.340;12.326;2023-02-04T10:39:57;102270.53;;;15.05;39.97
15998;BME280;8103;51.340;12.326;2023-02-04T10:42:27;102273.25;;;15.17;38.97
15998;BME280;8103;51.340;12.326;2023-02-04T10:44:55;102275.94;;;14.75;39.63
15998;BME280;8103;51.340;12.326;2023-02-04T10:47:27;102278.31;;;13.93;40.93
15998;BME280;8103;51.340;12.326;2023-02-04T10:50:14;102288.84;;;13.52;41.90
15998;BME280;8103;51.340;12.326;2023-02-04T10:52:48;102276.16;;;12.97;42.95
15998;BME280;8103;51.340;12.326;2023-02-04T10:55:21;102281.91;;;13.87;42.71
15998;BME280;8103;51.340;12.326;2023-02-04T10:57:51;102279.91;;;16.36;39.85
15998;BME280;8103;51.340;12.326;2023-02-04T11:00:22;102285.72;;;19.72;32.69
15998;BME280;8103;51.340;12.326;2023-02-04T11:03:05;102286.59;;;17.90;33.25
15998;BME280;8103;51.340;12.326;2023-02-04T11:05:36;102297.28;;;16.63;35.50
15998;BME280;8103;51.340;12.326;2023-02-04T11:08:22;102292.06;;;15.53;37.15
15998;BME280;8103;51.340;12.326;2023-02-04T11:10:57;102288.22;;;15.95;37.39
15998;BME280;8103;51.340;12.326;2023-02-04T11:13:56;102289.97;;;17.97;33.92
15998;BME280;8103;51.340;12.326;2023-02-04T11:16:27;102287.19;;;16.86;34.76
15998;BME280;8103;51.340;12.326;2023-02-04T11:19:05;102295.25;;;15.73;36.91
15998;BME280;8103;51.340;12.326;2023-02-04T11:26:50;102295.81;;;13.66;40.97
15998;BME280;8103;51.340;12.326;2023-02-04T11:29:29;102287.88;;;12.71;42.61
15998;BME280;8103;51.340;12.326;2023-02-04T11:32:54;102301.59;;;11.87;44.69
15998;BME280;8103;51.340;12.326;2023-02-04T11:35:27;102297.63;;;11.37;45.66
15998;BME280;8103;51.340;12.326;2023-02-04T11:37:57;102294.47;;;10.95;46.25
15998;BME280;8103;51.340;12.326;2023-02-04T11:40:31;102296.81;;;10.57;47.55
15998;BME280;8103;51.340;12.326;2023-02-04T11:43:14;102303.97;;;10.43;47.08
15998;BME280;8103;51.340;12.326;2023-02-04T11:45:42;102298.09;;;10.20;46.13
15998;BME280;8103;51.340;12.326;2023-02-04T11:48:14;102303.09;;;10.02;47.34
15998;BME280;8103;51.340;12.326;2023-02-04T11:50:55;102307.34;;;9.69;46.76
15998;BME280;8103;51.340;12.326;2023-02-04T11:53:28;102303.78;;;9.35;47.77
15998;BME280;8103;51.340;12.326;2023-02-04T11:55:56;102311.66;;;9.01;49.76
15998;BME280;8103;51.340;12.326;2023-02-04T11:58:24;102311.41;;;9.17;49.24
15998;BME280;8103;51.340;12.326;2023-02-04T12:00:52;102310.41;;;9.39;48.48
15998;BME280;8103;51.340;12.326;2023-02-04T12:05:53;102306.16;;;9.44;48.64
15998;BME280;8103;51.340;12.326;2023-02-04T12:08:35;102315.81;;;9.66;48.79
15998;BME280;8103;51.340;12.326;2023-02-04T12:11:21;102316.34;;;10.10;48.84
15998;BME280;8103;51.340;12.326;2023-02-04T12:13:54;102315.28;;;10.39;48.19
15998;BME280;8103;51.340;12.326;2023-02-04T12:16:23;102304.66;;;10.58;47.85
15998;BME280;8103;51.340;12.326;2023-02-04T12:18:50;102320.38;;;10.61;47.71
15998;BME280;8103;51.340;12.326;2023-02-04T12:21:18;102314.75;;;10.56;47.98
15998;BME280;8103;51.340;12.326;2023-02-04T12:23:45;102321.00;;;10.29;48.65
15998;BME280;8103;51.340;12.326;2023-02-04T12:26:12;102321.94;;;9.88;49.72
15998;BME280;8103;51.340;12.326;2023-02-04T12:28:39;102325.13;;;9.49;50.59
15998;BME280;8103;51.340;12.326;2023-02-04T12:31:06;102330.22;;;9.23;51.82
15998;BME280;8103;51.340;12.326;2023-02-04T12:33:34;102338.13;;;9.10;51.86
15998;BME280;8103;51.340;12.326;2023-02-04T12:36:01;102320.69;;;9.35;51.61
15998;BME280;8103;51.340;12.326;2023-02-04T12:38:28;102328.13;;;9.88;50.65
15998;BME280;8103;51.340;12.326;2023-02-04T12:40:54;102321.44;;;10.26;50.27
15998;BME280;8103;51.340;12.326;2023-02-04T12:43:21;102329.69;;;10.31;49.93
15998;BME280;8103;51.340;12.326;2023-02-04T12:45:49;102325.31;;;10.24;49.66
15998;BME280;8103;51.340;12.326;2023-02-04T12:48:16;102326.16;;;10.03;49.88
15998;BME280;8103;51.340;12.326;2023-02-04T12:50:43;102325.22;;;9.83;50.14
15998;BME280;8103;51.340;12.326;2023-02-04T12:53:09;102330.09;;;9.73;49.38
15998;BME280;8103;51.340;12.326;2023-02-04T12:55:36;102324.03;;;9.92;48.47
15998;BME280;8103;51.340;12.326;2023-02-04T12:58:03;102327.53;;;10.14;48.00
15998;BME280;8103;51.340;12.326;2023-02-04T13:00:30;102339.94;;;10.21;47.75
15998;BME280;8103;51.340;12.326;2023-02-04T13:02:57;102331.91;;;9.94;48.71
15998;BME280;8103;51.340;12.326;2023-02-04T13:05:26;102335.44;;;9.73;49.21
15998;BME280;8103;51.340;12.326;2023-02-04T13:07:53;102336.72;;;9.56;49.69
15998;BME280;8103;51.340;12.326;2023-02-04T13:10:20;102342.09;;;9.35;50.45
15998;BME280;8103;51.340;12.326;2023-02-04T13:12:50;102341.59;;;9.11;50.53
15998;BME280;8103;51.340;12.326;2023-02-04T13:15:17;102341.41;;;8.91;50.98
15998;BME280;8103;51.340;12.326;2023-02-04T13:17:44;102337.25;;;9.45;50.34
15998;BME280;8103;51.340;12.326;2023-02-04T13:20:11;102338.44;;;10.46;48.13
15998;BME280;8103;51.340;12.326;2023-02-04T13:22:38;102342.34;;;10.10;48.34
15998;BME280;8103;51.340;12.326;2023-02-04T13:25:05;102349.41;;;9.69;49.43
15998;BME280;8103;51.340;12.326;2023-02-04T13:27:33;102355.16;;;9.45;49.93
15998;BME280;8103;51.340;12.326;2023-02-04T13:30:00;102358.63;;;9.03;50.38
15998;BME280;8103;51.340;12.326;2023-02-04T13:32:27;102356.63;;;8.76;51.04
15998;BME280;8103;51.340;12.326;2023-02-04T13:34:53;102351.19;;;10.38;51.04
15998;BME280;8103;51.340;12.326;2023-02-04T13:37:20;102339.38;;;13.63;42.74